createdAt,value
2018-10-17T00:01:55.286Z,96934.90
2018-10-17T00:04:24.163Z,96937.99
2018-10-17T00:06:53.106Z,96931.29
2018-10-17T00:09:22.007Z,96937.47
2018-10-17T00:11:50.887Z,96933.61
2018-10-17T00:14:19.792Z,96941.59
2018-10-17T00:16:48.839Z,96938.50
2018-10-17T00:19:17.713Z,96939.78
2018-10-17T00:21:46.612Z,96936.43
2018-10-17T00:24:15.487Z,96939.78
2018-10-17T00:26:44.364Z,96942.59
2018-10-17T00:29:13.388Z,96936.91
2018-10-17T00:31:42.199Z,96931.77
2018-10-17T00:34:11.072Z,96931.25
2018-10-17T00:36:39.961Z,96933.80
2018-10-17T00:39:10.668Z,96934.03
2018-10-17T00:41:39.867Z,96934.79
2018-10-17T00:44:08.739Z,96930.69
2018-10-17T00:46:37.651Z,96936.08
2018-10-17T00:49:06.678Z,96923.01
2018-10-17T00:51:35.545Z,96932.23
2018-10-17T00:54:04.423Z,96928.86
2018-10-17T00:56:33.332Z,96918.58
2018-10-17T00:59:10.542Z,96931.97
2018-10-17T01:01:39.917Z,96927.03
2018-10-17T01:04:09.107Z,96921.58
2018-10-17T01:06:38.479Z,96922.36
2018-10-17T01:09:10.130Z,96924.89
2018-10-17T01:11:39.559Z,96928.25
2018-10-17T01:14:08.844Z,96927.42
2018-10-17T01:16:37.735Z,96924.20
2018-10-17T01:19:07.137Z,96927.31
2018-10-17T01:21:36.547Z,96927.03
2018-10-17T01:24:05.731Z,96928.31
2018-10-17T01:26:34.632Z,96925.25
2018-10-17T01:29:03.616Z,96925.14
2018-10-17T01:31:32.471Z,96923.81
2018-10-17T01:34:01.422Z,96924.51
2018-10-17T01:36:30.278Z,96923.21
2018-10-17T01:38:59.142Z,96919.34
2018-10-17T01:41:27.992Z,96919.53
2018-10-17T01:43:56.839Z,96914.16
2018-10-17T01:46:25.727Z,96916.77
2018-10-17T01:48:55.566Z,96909.80
2018-10-17T01:51:24.467Z,96905.94
2018-10-17T01:53:53.322Z,96908.50
2018-10-17T01:56:22.214Z,96907.21
2018-10-17T01:58:51.132Z,96909.28
2018-10-17T02:01:20.019Z,96905.47
2018-10-17T02:03:48.900Z,96900.56
2018-10-17T02:06:17.812Z,96897.97
2018-10-17T02:08:46.688Z,96898.02
2018-10-17T02:11:15.621Z,96896.94
2018-10-17T02:13:44.470Z,96895.65
2018-10-17T02:16:13.335Z,96899.45
2018-10-17T02:18:42.196Z,96892.53
2018-10-17T02:21:11.054Z,96897.91
2018-10-17T02:23:39.949Z,96896.57
2018-10-17T02:26:08.811Z,96892.47
2018-10-17T02:28:37.679Z,96893.45
2018-10-17T02:31:06.675Z,96892.16
2018-10-17T02:33:35.500Z,96898.55
2018-10-17T02:36:04.481Z,96891.87
2018-10-17T02:38:33.360Z,96885.97
2018-10-17T02:41:02.327Z,96895.97
2018-10-17T02:43:31.168Z,96884.66
2018-10-17T02:46:00.026Z,96888.72
2018-10-17T02:48:28.927Z,96886.39
2018-10-17T02:50:57.788Z,96890.48
2018-10-17T02:53:26.628Z,96887.62
2018-10-17T02:55:55.521Z,96881.25
2018-10-17T02:58:24.465Z,96875.57
2018-10-17T03:00:53.386Z,96882.48
2018-10-17T03:03:22.324Z,96876.95
2018-10-17T03:05:51.221Z,96874.64
2018-10-17T03:08:20.140Z,96879.45
2018-10-17T03:10:49.028Z,96878.61
2018-10-17T03:13:18.010Z,96883.72
2018-10-17T03:15:46.815Z,96882.70
2018-10-17T03:18:15.713Z,96883.17
2018-10-17T03:20:44.703Z,96881.89
2018-10-17T03:23:13.636Z,96880.06
2018-10-17T03:25:42.463Z,96887.27
2018-10-17T03:28:11.385Z,96886.48
2018-10-17T03:30:40.323Z,96885.43
2018-10-17T03:33:09.196Z,96886.72
2018-10-17T03:35:38.106Z,96886.19
2018-10-17T03:38:07.075Z,96885.92
2018-10-17T03:40:36.131Z,96886.45
2018-10-17T03:43:05.038Z,96886.13
2018-10-17T03:45:33.966Z,96887.09
2018-10-17T03:48:02.831Z,96883.02
2018-10-17T03:50:31.744Z,96884.04
2018-10-17T03:53:00.937Z,96886.31
2018-10-17T03:55:29.748Z,96885.32
2018-10-17T03:57:58.771Z,96881.47
2018-10-17T04:00:27.648Z,96884.27
2018-10-17T04:02:56.567Z,96884.50
2018-10-17T04:05:25.418Z,96888.64
2018-10-17T04:07:54.295Z,96895.30
2018-10-17T04:10:23.279Z,96892.96
2018-10-17T04:12:52.254Z,96903.20
2018-10-17T04:15:21.117Z,96901.88
2018-10-17T04:17:50.003Z,96900.80
2018-10-17T04:20:18.921Z,96903.56
2018-10-17T04:22:51.739Z,96904.58
2018-10-17T04:25:20.563Z,96907.41
2018-10-17T04:27:49.591Z,96902.48
2018-10-17T04:30:18.469Z,96907.37
2018-10-17T04:32:47.340Z,96907.58
2018-10-17T04:35:16.415Z,96903.20
2018-10-17T04:37:45.395Z,96904.48
2018-10-17T04:40:14.276Z,96901.66
2018-10-17T04:42:43.163Z,96907.80
2018-10-17T04:45:12.168Z,96900.83
2018-10-17T04:47:41.139Z,96907.92
2018-10-17T04:50:11.005Z,96908.71
2018-10-17T04:52:40.600Z,96906.34
2018-10-17T04:55:10.589Z,96913.55
2018-10-17T04:57:39.915Z,96913.84
2018-10-17T05:00:11.649Z,96916.11
2018-10-17T05:02:41.696Z,96912.27
2018-10-17T05:05:10.744Z,96914.83
2018-10-17T05:07:39.858Z,96913.50
2018-10-17T05:10:08.744Z,96915.81
2018-10-17T05:12:37.666Z,96922.41
2018-10-17T05:15:07.008Z,96923.42
2018-10-17T05:17:35.954Z,96920.86
2018-10-17T05:20:05.505Z,96921.87
2018-10-17T05:22:34.384Z,96927.76
2018-10-17T05:25:03.425Z,96923.65
2018-10-17T05:27:32.346Z,96920.86
2018-10-17T05:30:01.592Z,96916.94
2018-10-17T05:32:30.949Z,96922.85
2018-10-17T05:34:59.892Z,96920.82
2018-10-17T05:37:28.834Z,96925.16
2018-10-17T05:39:57.666Z,96925.86
2018-10-17T05:42:26.604Z,96924.06
2018-10-17T05:44:55.483Z,96926.09
2018-10-17T05:47:24.352Z,96930.42
2018-10-17T05:49:53.305Z,96932.92
2018-10-17T05:52:22.263Z,96936.56
2018-10-17T05:54:51.188Z,96940.67
2018-10-17T05:57:20.163Z,96935.03
2018-10-17T05:59:49.092Z,96938.31
2018-10-17T06:02:20.776Z,96930.99
2018-10-17T06:04:49.680Z,96927.94
2018-10-17T06:07:18.607Z,96932.36
2018-10-17T06:09:47.604Z,96928.81
2018-10-17T06:12:16.778Z,96931.13
2018-10-17T06:14:45.724Z,96934.52
2018-10-17T06:17:14.629Z,96928.94
2018-10-17T06:19:43.575Z,96929.42
2018-10-17T06:22:12.463Z,96932.25
2018-10-17T06:24:41.348Z,96933.61
2018-10-17T06:27:10.372Z,96930.32
2018-10-17T06:29:39.375Z,96931.41
2018-10-17T06:32:08.260Z,96927.57
2018-10-17T06:34:37.135Z,96925.07
2018-10-17T06:37:06.432Z,96928.77
2018-10-17T06:39:35.295Z,96932.77
2018-10-17T06:42:04.259Z,96932.60
2018-10-17T06:44:33.147Z,96933.51
2018-10-17T06:47:02.027Z,96939.45
2018-10-17T06:49:30.904Z,96931.83
2018-10-17T06:51:59.789Z,96933.93
2018-10-17T06:54:28.804Z,96934.27
2018-10-17T06:56:57.632Z,96934.84
2018-10-17T06:59:26.547Z,96926.92
2018-10-17T07:01:55.548Z,96924.42
2018-10-17T07:04:30.469Z,96923.98
2018-10-17T07:06:59.395Z,96926.62
2018-10-17T07:09:28.339Z,96926.19
2018-10-17T07:11:57.224Z,96926.76
2018-10-17T07:14:28.542Z,96925.55
2018-10-17T07:16:58.089Z,96921.74
2018-10-17T07:19:27.043Z,96923.05
2018-10-17T07:21:56.073Z,96924.36
2018-10-17T07:24:24.947Z,96922.81
2018-10-17T07:26:54.024Z,96921.52
2018-10-17T07:29:22.991Z,96928.23
2018-10-17T07:31:51.809Z,96924.83
2018-10-17T07:34:20.732Z,96925.79
2018-10-17T07:36:49.702Z,96928.26
2018-10-17T07:39:18.583Z,96928.80
2018-10-17T07:41:47.502Z,96929.91
2018-10-17T07:44:16.346Z,96925.98
2018-10-17T07:46:45.271Z,96929.66
2018-10-17T07:49:14.185Z,96931.50
2018-10-17T07:51:43.093Z,96931.85
2018-10-17T07:54:12.049Z,96931.21
2018-10-17T07:56:40.888Z,96933.26
2018-10-17T07:59:09.760Z,96931.75
2018-10-17T08:01:38.647Z,96938.86
2018-10-17T08:04:07.619Z,96933.92
2018-10-17T08:06:36.561Z,96938.41
2018-10-17T08:09:08.762Z,96935.40
2018-10-17T08:11:37.878Z,96941.16
2018-10-17T08:14:06.881Z,96934.58
2018-10-17T08:16:35.794Z,96941.34
2018-10-17T08:19:04.750Z,96941.56
2018-10-17T08:21:33.738Z,96938.70
2018-10-17T08:24:02.578Z,96939.34
2018-10-17T08:26:31.463Z,96943.02
2018-10-17T08:29:00.341Z,96940.77
2018-10-17T08:31:29.244Z,96938.91
2018-10-17T08:33:58.138Z,96937.78
2018-10-17T08:36:27.246Z,96937.09
2018-10-17T08:38:56.055Z,96944.59
2018-10-17T08:41:25.009Z,96939.62
2018-10-17T08:43:53.936Z,96942.39
2018-10-17T08:46:22.805Z,96944.84
2018-10-17T08:48:51.711Z,96941.08
2018-10-17T08:51:20.580Z,96936.48
2018-10-17T08:53:49.476Z,96937.00
2018-10-17T08:56:18.404Z,96936.41
2018-10-17T08:58:47.256Z,96938.52
2018-10-17T09:01:16.155Z,96931.16
2018-10-17T09:03:45.046Z,96926.89
2018-10-17T09:06:14.047Z,96928.34
2018-10-17T09:08:43.266Z,96931.88
2018-10-17T09:11:12.168Z,96932.70
2018-10-17T09:13:41.039Z,96933.26
2018-10-17T09:16:09.966Z,96938.16
2018-10-17T09:18:38.883Z,96936.55
2018-10-17T09:21:08.189Z,96929.79
2018-10-17T09:23:36.717Z,96932.11
2018-10-17T09:26:05.643Z,96932.53
2018-10-17T09:28:34.529Z,96936.77
2018-10-17T09:31:03.398Z,96934.91
2018-10-17T09:33:32.641Z,96934.20
2018-10-17T09:36:01.582Z,96930.73
2018-10-17T09:38:30.492Z,96937.05
2018-10-17T09:40:59.378Z,96930.52
2018-10-17T09:43:28.284Z,96928.23
2018-10-17T09:45:57.215Z,96927.97
2018-10-17T09:48:26.105Z,96921.30
2018-10-17T09:50:54.959Z,96919.56
2018-10-17T09:53:23.935Z,96918.62
2018-10-17T09:55:52.745Z,96919.91
2018-10-17T09:58:21.634Z,96917.51
2018-10-17T10:00:55.827Z,96916.05
2018-10-17T10:03:24.693Z,96910.02
2018-10-17T10:05:53.611Z,96912.11
2018-10-17T10:08:22.459Z,96909.55
2018-10-17T10:10:51.524Z,96903.80
2018-10-17T10:13:20.383Z,96904.44
2018-10-17T10:15:49.297Z,96901.60
2018-10-17T10:18:18.184Z,96894.58
2018-10-17T10:20:47.078Z,96892.24
2018-10-17T10:23:15.964Z,96888.75
2018-10-17T10:25:45.136Z,96882.66
2018-10-17T10:28:14.131Z,96883.36
2018-10-17T10:30:42.956Z,96869.16
2018-10-17T10:33:11.805Z,96876.84
2018-10-17T10:35:40.668Z,96871.37
2018-10-17T10:38:09.560Z,96865.03
2018-10-17T10:40:38.422Z,96859.46
2018-10-17T10:43:07.408Z,96857.17
2018-10-17T10:45:36.339Z,96860.89
2018-10-17T10:48:05.501Z,96855.05
2018-10-17T10:50:34.368Z,96852.78
2018-10-17T10:53:03.336Z,96856.66
2018-10-17T10:55:32.131Z,96850.63
2018-10-17T10:58:01.601Z,96848.46
2018-10-17T11:00:30.397Z,96849.53
2018-10-17T11:02:59.366Z,96846.56
2018-10-17T11:05:28.430Z,96844.23
2018-10-17T11:07:57.176Z,96836.93
2018-10-17T11:10:26.014Z,96839.26
2018-10-17T11:12:54.897Z,96835.19
2018-10-17T11:15:23.788Z,96833.60
2018-10-17T11:17:52.992Z,96825.20
2018-10-17T11:20:21.870Z,96833.55
2018-10-17T11:22:50.757Z,96832.27
2018-10-17T11:25:19.615Z,96829.36
2018-10-17T11:27:48.538Z,96829.91
2018-10-17T11:30:17.391Z,96825.65
2018-10-17T11:32:46.253Z,96827.76
2018-10-17T11:35:15.191Z,96826.73
2018-10-17T11:37:44.079Z,96830.17
2018-10-17T11:40:13.079Z,96824.69
2018-10-17T11:42:41.932Z,96813.81
2018-10-17T11:45:10.864Z,96815.77
2018-10-17T11:47:39.826Z,96815.17
2018-10-17T11:50:09.892Z,96815.91
2018-10-17T11:52:39.111Z,96814.51
2018-10-17T11:55:08.221Z,96813.95
2018-10-17T11:57:37.101Z,96808.20
2018-10-17T12:00:08.074Z,96808.75
2018-10-17T12:02:37.007Z,96803.98
2018-10-17T12:05:07.893Z,96797.20
2018-10-17T12:07:36.709Z,96794.39
2018-10-17T12:10:06.460Z,96800.78
2018-10-17T12:12:35.540Z,96793.62
2018-10-17T12:15:04.607Z,96793.38
2018-10-17T12:17:33.436Z,96792.37
2018-10-17T12:20:02.301Z,96788.38
2018-10-17T12:22:31.180Z,96788.09
2018-10-17T12:25:00.059Z,96778.93
2018-10-17T12:27:28.963Z,96773.52
2018-10-17T12:29:57.852Z,96777.84
2018-10-17T12:32:26.743Z,96763.30
2018-10-17T12:34:55.659Z,96762.31
2018-10-17T12:37:24.559Z,96764.36
2018-10-17T12:39:53.789Z,96762.63
2018-10-17T12:42:22.607Z,96762.95
2018-10-17T12:44:51.585Z,96762.33
2018-10-17T12:47:20.432Z,96759.47
2018-10-17T12:49:49.383Z,96763.11
2018-10-17T12:52:18.310Z,96759.38
2018-10-17T12:54:47.125Z,96757.22
2018-10-17T12:57:15.995Z,96759.78
2018-10-17T12:59:44.876Z,96753.47
2018-10-17T13:02:13.752Z,96754.75
2018-10-17T13:04:42.643Z,96758.17
2018-10-17T13:07:11.635Z,96752.89
2018-10-17T13:09:40.479Z,96757.83
2018-10-17T13:12:09.644Z,96751.75
2018-10-17T13:14:38.536Z,96752.53
2018-10-17T13:17:07.532Z,96754.94
2018-10-17T13:19:36.408Z,96749.53
2018-10-17T13:22:05.565Z,96751.00
2018-10-17T13:24:34.459Z,96744.18
2018-10-17T13:27:03.361Z,96746.16
2018-10-17T13:29:32.271Z,96746.10
2018-10-17T13:32:01.155Z,96739.48
2018-10-17T13:34:30.063Z,96745.36
2018-10-17T13:36:59.046Z,96733.98
2018-10-17T13:39:27.939Z,96736.47
2018-10-17T13:41:56.837Z,96737.78
2018-10-17T13:44:25.900Z,96735.75
2018-10-17T13:46:54.828Z,96733.12
2018-10-17T13:49:23.750Z,96730.79
2018-10-17T13:51:52.621Z,96731.85
2018-10-17T13:54:21.500Z,96735.70
2018-10-17T13:56:50.398Z,96734.68
2018-10-17T13:59:19.386Z,96732.51
2018-10-17T14:01:48.200Z,96735.90
2018-10-17T14:04:17.094Z,96737.81
2018-10-17T14:06:46.011Z,96729.88
2018-10-17T14:09:14.969Z,96734.11
2018-10-17T14:11:43.892Z,96731.03
2018-10-17T14:14:12.669Z,96733.70
2018-10-17T14:16:41.668Z,96731.13
2018-10-17T14:19:10.579Z,96730.16
2018-10-17T14:21:39.448Z,96730.39
2018-10-17T14:24:08.414Z,96731.31
2018-10-17T14:26:37.307Z,96725.36
2018-10-17T14:29:06.324Z,96730.42
2018-10-17T14:31:35.197Z,96730.22
2018-10-17T14:34:04.079Z,96731.27
2018-10-17T14:36:33.002Z,96726.08
2018-10-17T14:39:01.905Z,96728.78
2018-10-17T14:41:30.764Z,96727.19
2018-10-17T14:43:59.641Z,96727.95
2018-10-17T14:46:28.507Z,96727.45
2018-10-17T14:48:57.388Z,96728.07
2018-10-17T14:51:26.276Z,96726.89
2018-10-17T14:53:55.174Z,96725.86
2018-10-17T14:56:24.045Z,96732.63
2018-10-17T14:58:52.927Z,96726.19
2018-10-17T15:01:21.845Z,96724.39
2018-10-17T15:03:50.722Z,96724.64
2018-10-17T15:06:19.620Z,96724.31
2018-10-17T15:08:48.532Z,96720.91
2018-10-17T15:11:17.509Z,96724.57
2018-10-17T15:13:46.320Z,96721.11
2018-10-17T15:16:15.197Z,96718.73
2018-10-17T15:18:44.065Z,96724.03
2018-10-17T15:21:13.076Z,96721.84
2018-10-17T15:23:41.887Z,96723.06
2018-10-17T15:26:10.840Z,96731.21
2018-10-17T15:28:39.756Z,96725.34
2018-10-17T15:31:08.608Z,96726.04
2018-10-17T15:33:37.527Z,96725.72
2018-10-17T15:36:06.482Z,96721.91
2018-10-17T15:38:35.332Z,96732.10
2018-10-17T15:41:04.242Z,96726.17
2018-10-17T15:43:33.135Z,96730.11
2018-10-17T15:46:02.028Z,96729.44
2018-10-17T15:48:30.897Z,96730.75
2018-10-17T15:50:59.813Z,96735.48
2018-10-17T15:53:28.700Z,96730.00
2018-10-17T15:55:57.580Z,96736.33
2018-10-17T15:58:26.464Z,96738.44
2018-10-17T16:00:55.379Z,96739.60
2018-10-17T16:03:24.271Z,96736.83
2018-10-17T16:05:53.312Z,96737.79
2018-10-17T16:08:22.180Z,96738.70
2018-10-17T16:10:51.095Z,96737.25
2018-10-17T16:13:26.726Z,96733.46
2018-10-17T16:15:55.591Z,96743.19
2018-10-17T16:18:24.531Z,96745.60
2018-10-17T16:20:53.426Z,96737.50
2018-10-17T16:23:22.404Z,96735.38
2018-10-17T16:25:51.253Z,96745.73
2018-10-17T16:28:20.144Z,96742.80
2018-10-17T16:30:49.185Z,96742.41
2018-10-17T16:33:17.942Z,96746.05
2018-10-17T16:35:46.859Z,96749.27
2018-10-17T16:38:15.767Z,96758.75
2018-10-17T16:40:44.670Z,96752.05
2018-10-17T16:43:13.548Z,96761.31
2018-10-17T16:45:42.457Z,96761.48
2018-10-17T16:48:11.415Z,96764.02
2018-10-17T16:50:40.854Z,96763.40
2018-10-17T16:53:09.653Z,96770.49
2018-10-17T16:55:38.515Z,96777.95
2018-10-17T16:58:07.402Z,96780.67
2018-10-17T17:00:36.288Z,96781.23
2018-10-17T17:03:05.321Z,96774.28
2018-10-17T17:05:34.183Z,96778.88
2018-10-17T17:08:03.312Z,96778.23
2018-10-17T17:10:32.246Z,96779.48
2018-10-17T17:13:01.451Z,96786.25
2018-10-17T17:15:30.323Z,96790.57
2018-10-17T17:17:59.342Z,96792.64
2018-10-17T17:20:28.599Z,96788.00
2018-10-17T17:22:57.987Z,96794.10
2018-10-17T17:25:27.269Z,96795.68
2018-10-17T17:27:56.618Z,96792.37
2018-10-17T17:30:25.953Z,96798.60
2018-10-17T17:32:55.224Z,96802.82
2018-10-17T17:35:25.378Z,96799.80
2018-10-17T17:37:54.717Z,96797.16
2018-10-17T17:40:23.962Z,96803.12
2018-10-17T17:42:53.176Z,96802.30
2018-10-17T17:45:22.506Z,96804.53
2018-10-17T17:47:51.823Z,96810.22
2018-10-17T17:50:21.205Z,96807.63
2018-10-17T17:52:50.592Z,96810.22
2018-10-17T17:55:20.125Z,96811.59
2018-10-17T17:57:49.432Z,96808.41
2018-10-17T18:00:18.789Z,96810.41
2018-10-17T18:02:48.142Z,96814.80
2018-10-17T18:05:17.368Z,96817.34
2018-10-17T18:07:46.752Z,96817.95
2018-10-17T18:10:15.881Z,96814.90
2018-10-17T18:12:45.184Z,96815.39
2018-10-17T18:15:14.536Z,96819.99
2018-10-17T18:17:43.817Z,96823.34
2018-10-17T18:20:13.127Z,96825.55
2018-10-17T18:22:42.337Z,96828.63
2018-10-17T18:25:11.702Z,96826.30
2018-10-17T18:27:42.554Z,96825.56
2018-10-17T18:30:11.836Z,96827.40
2018-10-17T18:32:41.224Z,96821.43
2018-10-17T18:35:10.776Z,96833.23
2018-10-17T18:37:40.086Z,96833.23
2018-10-17T18:40:09.517Z,96831.59
2018-10-17T18:42:38.761Z,96841.16
2018-10-17T18:45:07.939Z,96838.66
2018-10-17T18:47:37.162Z,96843.59
2018-10-17T18:50:07.044Z,96842.38
2018-10-17T18:52:36.383Z,96849.83
2018-10-17T18:55:06.350Z,96852.02
2018-10-17T18:57:35.654Z,96850.28
2018-10-17T19:00:05.176Z,96860.48
2018-10-17T19:02:34.377Z,96862.61
2018-10-17T19:05:03.656Z,96863.68
2018-10-17T19:07:32.867Z,96868.93
2018-10-17T19:10:02.164Z,96863.26
2018-10-17T19:12:31.528Z,96867.46
2018-10-17T19:15:00.830Z,96865.97
2018-10-17T19:17:30.194Z,96872.55
2018-10-17T19:19:59.474Z,96872.64
2018-10-17T19:22:28.795Z,96873.20
2018-10-17T19:24:58.024Z,96876.36
2018-10-17T19:27:27.268Z,96874.91
2018-10-17T19:29:56.564Z,96878.56
2018-10-17T19:32:25.866Z,96877.59
2018-10-17T19:34:55.059Z,96878.16
2018-10-17T19:37:24.344Z,96882.86
2018-10-17T19:39:53.236Z,96887.06
2018-10-17T19:42:22.257Z,96893.30
2018-10-17T19:44:51.197Z,96895.66
2018-10-17T19:47:20.087Z,96892.91
2018-10-17T19:49:48.976Z,96890.13
2018-10-17T19:52:17.987Z,96894.31
2018-10-17T19:54:47.314Z,96892.00
2018-10-17T19:57:16.268Z,96891.56
2018-10-17T19:59:45.212Z,96894.69
2018-10-17T20:02:14.123Z,96898.56
2018-10-17T20:04:43.045Z,96897.27
2018-10-17T20:07:12.100Z,96900.94
2018-10-17T20:09:40.980Z,96903.78
2018-10-17T20:12:10.012Z,96901.25
2018-10-17T20:14:38.970Z,96901.01
2018-10-17T20:17:08.147Z,96895.35
2018-10-17T20:19:37.096Z,96901.31
2018-10-17T20:22:08.788Z,96897.98
2018-10-17T20:24:37.743Z,96904.98
2018-10-17T20:27:07.150Z,96908.32
2018-10-17T20:29:36.052Z,96910.91
2018-10-17T20:32:05.292Z,96906.81
2018-10-17T20:34:34.427Z,96903.95
2018-10-17T20:37:03.334Z,96903.70
2018-10-17T20:39:32.319Z,96903.20
2018-10-17T20:42:01.260Z,96905.78
2018-10-17T20:44:30.155Z,96903.48
2018-10-17T20:46:59.092Z,96906.82
2018-10-17T20:49:27.985Z,96910.95
2018-10-17T20:51:56.872Z,96907.11
2018-10-17T20:54:26.643Z,96907.11
2018-10-17T20:56:55.580Z,96905.33
2018-10-17T20:59:24.470Z,96910.73
2018-10-17T21:01:53.755Z,96911.53
2018-10-17T21:04:23.016Z,96907.16
2018-10-17T21:06:52.333Z,96912.82
2018-10-17T21:09:21.506Z,96912.56
2018-10-17T21:11:50.699Z,96911.28
2018-10-17T21:14:20.038Z,96910.52
2018-10-17T21:16:49.301Z,96910.53
2018-10-17T21:19:18.616Z,96917.27
2018-10-17T21:21:47.920Z,96912.36
2018-10-17T21:24:17.196Z,96917.30
2018-10-17T21:26:46.456Z,96921.41
2018-10-17T21:29:15.684Z,96916.03
2018-10-17T21:31:45.039Z,96918.61
2018-10-17T21:34:14.180Z,96919.67
2018-10-17T21:36:43.522Z,96921.22
2018-10-17T21:39:13.558Z,96915.55
2018-10-17T21:41:42.980Z,96912.47
2018-10-17T21:44:12.605Z,96909.88
2018-10-17T21:46:41.712Z,96910.19
2018-10-17T21:49:11.160Z,96909.41
2018-10-17T21:51:40.883Z,96909.13
2018-10-17T21:54:10.154Z,96900.88
2018-10-17T21:56:39.465Z,96905.03
2018-10-17T21:59:08.843Z,96900.91
2018-10-17T22:01:38.048Z,96901.66
2018-10-17T22:04:07.359Z,96904.77
2018-10-17T22:06:36.669Z,96902.72
2018-10-17T22:09:08.591Z,96901.89
2018-10-17T22:11:37.907Z,96901.37
2018-10-17T22:14:07.389Z,96895.22
2018-10-17T22:16:41.751Z,96890.08
2018-10-17T22:19:11.283Z,96897.80
2018-10-17T22:21:40.355Z,96902.68
2018-10-17T22:24:09.611Z,96900.89
2018-10-17T22:26:38.898Z,96899.34
2018-10-17T22:29:08.198Z,96901.41
2018-10-17T22:31:37.498Z,96907.86
2018-10-17T22:34:06.620Z,96902.45
2018-10-17T22:36:35.897Z,96896.78
2018-10-17T22:39:07.447Z,96900.92
2018-10-17T22:41:36.782Z,96899.63
2018-10-17T22:44:06.173Z,96900.92
2018-10-17T22:46:35.394Z,96902.20
2018-10-17T22:49:04.711Z,96907.34
2018-10-17T22:51:33.955Z,96902.45
2018-10-17T22:54:03.237Z,96899.13
2018-10-17T22:56:32.560Z,96894.73
2018-10-17T22:59:01.873Z,96893.70
2018-10-17T23:01:31.168Z,96899.63
2018-10-17T23:04:00.464Z,96894.22
2018-10-17T23:06:29.647Z,96894.48
2018-10-17T23:08:58.862Z,96898.09
2018-10-17T23:11:28.172Z,96898.34
2018-10-17T23:13:57.367Z,96899.36
2018-10-17T23:16:26.441Z,96902.45
2018-10-17T23:18:55.644Z,96902.70
2018-10-17T23:21:24.831Z,96900.91
2018-10-17T23:23:54.038Z,96900.39
2018-10-17T23:26:23.236Z,96901.92
2018-10-17T23:28:52.536Z,96902.19
2018-10-17T23:31:23.357Z,96901.14
2018-10-17T23:33:52.659Z,96900.39
2018-10-17T23:36:22.407Z,96896.01
2018-10-17T23:38:51.952Z,96893.66
2018-10-17T23:41:21.444Z,96891.09
2018-10-17T23:43:50.688Z,96897.27
2018-10-17T23:46:19.883Z,96899.58
2018-10-17T23:48:49.100Z,96894.18
2018-10-17T23:51:18.279Z,96903.43
2018-10-17T23:53:47.575Z,96902.66
2018-10-17T23:56:16.917Z,96902.65
2018-10-17T23:58:46.155Z,96897.77
